sensor_id;sensor_type;location;lat;lon;timestamp;pressure;altitude;pressure_sealevel;temperature;humidity
26839;BME280;40088;51.214;6.786;2022-12-18T00:04:22;102525.75;;;16.01;37.93
26839;BME280;40088;51.214;6.786;2022-12-18T00:14:23;102534.16;;;15.99;37.86
26839;BME280;40088;51.214;6.786;2022-12-18T00:24:23;102543.09;;;16.01;37.87
26839;BME280;40088;51.214;6.786;2022-12-18T00:34:23;102531.41;;;15.99;38.00
26839;BME280;40088;51.214;6.786;2022-12-18T00:44:23;102542.41;;;15.99;37.83
26839;BME280;40088;51.214;6.786;2022-12-18T00:54:24;102530.38;;;16.00;37.75
26839;BME280;40088;51.214;6.786;2022-12-18T01:04:24;102535.88;;;16.00;37.64
26839;BME280;40088;51.214;6.786;2022-12-18T01:14:24;102531.25;;;16.01;37.75
26839;BME280;40088;51.214;6.786;2022-12-18T01:24:25;102527.78;;;15.99;37.82
26839;BME280;40088;51.214;6.786;2022-12-18T01:34:25;102530.38;;;16.00;37.74
26839;BME280;40088;51.214;6.786;2022-12-18T01:54:57;102524.16;;;15.98;37.88
26839;BME280;40088;51.214;6.786;2022-12-18T02:04:57;102529.50;;;16.00;37.48
26839;BME280;40088;51.214;6.786;2022-12-18T02:15:17;102519.69;;;15.97;37.59
26839;BME280;40088;51.214;6.786;2022-12-18T02:25:55;102526.75;;;16.00;37.80
26839;BME280;40088;51.214;6.786;2022-12-18T02:36:03;102502.88;;;16.00;37.70
26839;BME280;40088;51.214;6.786;2022-12-18T02:46:36;102500.44;;;15.97;37.53
26839;BME280;40088;51.214;6.786;2022-12-18T02:56:55;102519.69;;;15.97;37.51
26839;BME280;40088;51.214;6.786;2022-12-18T03:07:01;102494.78;;;15.99;37.54
26839;BME280;40088;51.214;6.786;2022-12-18T03:17:05;102499.44;;;15.98;37.48
26839;BME280;40088;51.214;6.786;2022-12-18T03:27:11;102487.56;;;15.98;37.42
26839;BME280;40088;51.214;6.786;2022-12-18T03:37:12;102484.81;;;15.98;37.52
26839;BME280;40088;51.214;6.786;2022-12-18T03:47:29;102486.69;;;15.97;37.92
26839;BME280;40088;51.214;6.786;2022-12-18T03:57:32;102474.81;;;15.97;37.50
26839;BME280;40088;51.214;6.786;2022-12-18T04:07:33;102471.94;;;15.98;37.78
26839;BME280;40088;51.214;6.786;2022-12-18T04:17:33;102463.81;;;15.97;37.60
26839;BME280;40088;51.214;6.786;2022-12-18T04:27:34;102456.44;;;15.97;37.79
26839;BME280;40088;51.214;6.786;2022-12-18T04:37:34;102461.78;;;15.99;37.77
26839;BME280;40088;51.214;6.786;2022-12-18T04:47:34;102456.28;;;15.99;37.74
26839;BME280;40088;51.214;6.786;2022-12-18T04:57:35;102453.53;;;15.99;37.92
26839;BME280;40088;51.214;6.786;2022-12-18T05:07:35;102430.38;;;16.01;37.54
26839;BME280;40088;51.214;6.786;2022-12-18T05:17:35;102446.88;;;16.01;37.55
26839;BME280;40088;51.214;6.786;2022-12-18T05:27:36;102436.03;;;16.00;37.72
26839;BME280;40088;51.214;6.786;2022-12-18T05:37:36;102448.75;;;16.01;37.69
26839;BME280;40088;51.214;6.786;2022-12-18T05:47:36;102458.72;;;16.02;37.39
26839;BME280;40088;51.214;6.786;2022-12-18T05:57:37;102471.63;;;16.01;37.73
26839;BME280;40088;51.214;6.786;2022-12-18T06:07:37;102485.38;;;16.01;37.72
26839;BME280;40088;51.214;6.786;2022-12-18T06:17:37;102503.63;;;16.02;37.65
26839;BME280;40088;51.214;6.786;2022-12-18T06:27:37;102505.47;;;16.02;37.65
26839;BME280;40088;51.214;6.786;2022-12-18T06:37:38;102482.63;;;16.01;37.66
26839;BME280;40088;51.214;6.786;2022-12-18T06:47:38;102473.38;;;16.02;37.42
26839;BME280;40088;51.214;6.786;2022-12-18T06:57:38;102448.75;;;16.01;37.69
26839;BME280;40088;51.214;6.786;2022-12-18T07:07:38;102452.09;;;16.04;37.24
26839;BME280;40088;51.214;6.786;2022-12-18T07:17:39;102453.09;;;16.03;37.56
26839;BME280;40088;51.214;6.786;2022-12-18T07:27:39;102464.09;;;16.03;37.62
26839;BME280;40088;51.214;6.786;2022-12-18T07:37:39;102439.34;;;16.03;37.62
26839;BME280;40088;51.214;6.786;2022-12-18T07:47:40;102441.09;;;16.04;37.66
26839;BME280;40088;51.214;6.786;2022-12-18T07:57:41;102442.81;;;16.05;37.66
26839;BME280;40088;51.214;6.786;2022-12-18T08:07:41;102417.34;;;16.03;37.72
26839;BME280;40088;51.214;6.786;2022-12-18T08:17:41;102414.59;;;16.03;37.78
26839;BME280;40088;51.214;6.786;2022-12-18T08:27:42;102393.31;;;16.05;37.70
26839;BME280;40088;51.214;6.786;2022-12-18T08:37:42;102388.22;;;16.10;37.77
26839;BME280;40088;51.214;6.786;2022-12-18T08:47:42;102386.50;;;16.09;37.87
26839;BME280;40088;51.214;6.786;2022-12-18T08:57:42;102379.28;;;16.08;37.85
26839;BME280;40088;51.214;6.786;2022-12-18T09:07:43;102381.88;;;16.10;37.60
26839;BME280;40088;51.214;6.786;2022-12-18T09:17:43;102378.09;;;16.11;37.70
26839;BME280;40088;51.214;6.786;2022-12-18T09:27:46;102382.88;;;16.09;37.84
26839;BME280;40088;51.214;6.786;2022-12-18T09:37:47;102362.63;;;16.10;37.73
26839;BME280;40088;51.214;6.786;2022-12-18T09:47:48;102342.19;;;16.12;37.95
26839;BME280;40088;51.214;6.786;2022-12-18T09:57:53;102345.97;;;16.11;37.68
26839;BME280;40088;51.214;6.786;2022-12-18T10:08:11;102335.69;;;16.13;37.79
26839;BME280;40088;51.214;6.786;2022-12-18T10:18:36;102315.41;;;16.14;38.05
26839;BME280;40088;51.214;6.786;2022-12-18T10:28:40;102306.31;;;16.14;38.02
26839;BME280;40088;51.214;6.786;2022-12-18T10:38:40;102297.72;;;16.17;38.18
26839;BME280;40088;51.214;6.786;2022-12-18T10:59:03;102275.03;;;16.15;38.27
26839;BME280;40088;51.214;6.786;2022-12-18T11:09:07;102249.97;;;16.18;38.28
26839;BME280;40088;51.214;6.786;2022-12-18T11:19:30;102238.81;;;16.20;38.30
26839;BME280;40088;51.214;6.786;2022-12-18T11:29:37;102242.25;;;16.22;38.54
26839;BME280;40088;51.214;6.786;2022-12-18T11:39:44;102208.22;;;16.23;38.66
26839;BME280;40088;51.214;6.786;2022-12-18T11:49:49;102208.09;;;16.24;38.43
26839;BME280;40088;51.214;6.786;2022-12-18T12:00:02;102208.09;;;16.24;38.70
26839;BME280;40088;51.214;6.786;2022-12-18T12:10:09;102201.56;;;16.25;38.85
26839;BME280;40088;51.214;6.786;2022-12-18T12:20:36;102191.59;;;16.24;38.83
26839;BME280;40088;51.214;6.786;2022-12-18T12:31:14;102176.81;;;16.25;39.00
26839;BME280;40088;51.214;6.786;2022-12-18T12:41:23;102154.34;;;16.30;39.08
26839;BME280;40088;51.214;6.786;2022-12-18T12:51:46;102157.94;;;16.30;39.08
26839;BME280;40088;51.214;6.786;2022-12-18T13:12:25;102148.66;;;16.31;39.15
26839;BME280;40088;51.214;6.786;2022-12-18T13:22:46;102142.31;;;16.31;39.24
26839;BME280;40088;51.214;6.786;2022-12-18T13:32:48;102113.78;;;16.32;39.51
26839;BME280;40088;51.214;6.786;2022-12-18T13:53:27;102095.38;;;16.32;39.50
26839;BME280;40088;51.214;6.786;2022-12-18T14:03:29;102090.59;;;16.34;39.50
26839;BME280;40088;51.214;6.786;2022-12-18T14:13:33;102096.25;;;16.33;39.35
26839;BME280;40088;51.214;6.786;2022-12-18T14:23:40;102075.13;;;16.33;39.43
26839;BME280;40088;51.214;6.786;2022-12-18T14:33:41;102052.22;;;16.33;39.55
26839;BME280;40088;51.214;6.786;2022-12-18T14:43:43;102041.22;;;16.33;39.58
26839;BME280;40088;51.214;6.786;2022-12-18T14:53:58;102044.69;;;16.35;39.54
26839;BME280;40088;51.214;6.786;2022-12-18T15:04:01;102034.38;;;16.37;39.52
26839;BME280;40088;51.214;6.786;2022-12-18T15:24:31;102024.09;;;16.39;39.59
26839;BME280;40088;51.214;6.786;2022-12-18T15:34:32;101995.88;;;16.37;39.52
26839;BME280;40088;51.214;6.786;2022-12-18T15:44:34;102002.09;;;16.39;39.57
26839;BME280;40088;51.214;6.786;2022-12-18T15:54:34;102001.22;;;16.38;39.78
26839;BME280;40088;51.214;6.786;2022-12-18T16:04:53;102006.56;;;16.40;39.67
26839;BME280;40088;51.214;6.786;2022-12-18T16:14:54;102041.59;;;16.38;39.94
26839;BME280;40088;51.214;6.786;2022-12-18T16:24:55;102023.19;;;16.12;39.60
26839;BME280;40088;51.214;6.786;2022-12-18T16:34:59;102028.47;;;16.06;39.40
26839;BME280;40088;51.214;6.786;2022-12-18T16:44:59;102021.44;;;16.03;40.09
26839;BME280;40088;51.214;6.786;2022-12-18T16:55:00;102005.06;;;16.02;40.18
26839;BME280;40088;51.214;6.786;2022-12-18T17:05:00;102006.25;;;15.99;40.55
26839;BME280;40088;51.214;6.786;2022-12-18T17:15:00;102002.81;;;15.97;40.67
26839;BME280;40088;51.214;6.786;2022-12-18T17:25:00;101984.44;;;15.98;40.44
26839;BME280;40088;51.214;6.786;2022-12-18T17:35:01;101982.00;;;15.95;40.85
26839;BME280;40088;51.214;6.786;2022-12-18T17:45:01;101965.50;;;15.95;40.67
26839;BME280;40088;51.214;6.786;2022-12-18T17:55:01;101999.50;;;15.94;41.00
26839;BME280;40088;51.214;6.786;2022-12-18T18:05:02;102004.16;;;15.93;40.93
26839;BME280;40088;51.214;6.786;2022-12-18T18:15:02;102007.94;;;15.92;41.18
26839;BME280;40088;51.214;6.786;2022-12-18T18:25:03;102015.28;;;15.92;41.04
26839;BME280;40088;51.214;6.786;2022-12-18T18:35:04;102013.44;;;15.92;41.36
26839;BME280;40088;51.214;6.786;2022-12-18T18:45:05;102006.19;;;15.91;41.16
26839;BME280;40088;51.214;6.786;2022-12-18T18:55:06;102006.19;;;15.91;41.29
26839;BME280;40088;51.214;6.786;2022-12-18T19:05:07;101997.25;;;15.89;41.31
26839;BME280;40088;51.214;6.786;2022-12-18T19:15:08;102011.84;;;15.89;41.40
26839;BME280;40088;51.214;6.786;2022-12-18T19:25:08;102000.00;;;15.89;41.26
26839;BME280;40088;51.214;6.786;2022-12-18T19:35:09;101998.28;;;15.88;41.34
26839;BME280;40088;51.214;6.786;2022-12-18T19:45:09;101988.13;;;15.88;41.42
26839;BME280;40088;51.214;6.786;2022-12-18T19:55:10;101992.78;;;15.88;41.60
26839;BME280;40088;51.214;6.786;2022-12-18T20:05:11;101990.03;;;15.88;41.58
26839;BME280;40088;51.214;6.786;2022-12-18T20:15:11;102011.16;;;15.87;41.41
26839;BME280;40088;51.214;6.786;2022-12-18T20:25:12;102001.03;;;15.88;41.45
26839;BME280;40088;51.214;6.786;2022-12-18T20:35:12;101990.03;;;15.88;41.57
26839;BME280;40088;51.214;6.786;2022-12-18T20:45:13;101987.28;;;15.88;41.45
26839;BME280;40088;51.214;6.786;2022-12-18T20:55:13;101998.28;;;15.88;41.64
26839;BME280;40088;51.214;6.786;2022-12-18T21:05:13;102004.78;;;15.87;41.59
26839;BME280;40088;51.214;6.786;2022-12-18T21:15:14;102002.06;;;15.87;41.73
26839;BME280;40088;51.214;6.786;2022-12-18T21:25:14;101977.31;;;15.87;41.64
26839;BME280;40088;51.214;6.786;2022-12-18T21:35:15;101992.91;;;15.86;41.67
26839;BME280;40088;51.214;6.786;2022-12-18T21:45:15;101991.06;;;15.87;41.72
26839;BME280;40088;51.214;6.786;2022-12-18T21:55:16;101979.16;;;15.86;41.69
26839;BME280;40088;51.214;6.786;2022-12-18T22:05:16;101968.16;;;15.86;41.72
26839;BME280;40088;51.214;6.786;2022-12-18T22:15:17;101942.56;;;15.86;41.68
26839;BME280;40088;51.214;6.786;2022-12-18T22:25:17;101925.94;;;15.87;41.62
26839;BME280;40088;51.214;6.786;2022-12-18T22:35:17;101904.09;;;15.86;41.76
26839;BME280;40088;51.214;6.786;2022-12-18T22:45:18;101913.38;;;15.85;41.83
26839;BME280;40088;51.214;6.786;2022-12-18T22:55:19;101875.91;;;15.84;41.90
26839;BME280;40088;51.214;6.786;2022-12-18T23:05:19;101886.91;;;15.84;41.91
26839;BME280;40088;51.214;6.786;2022-12-18T23:15:20;101863.91;;;15.85;42.11
26839;BME280;40088;51.214;6.786;2022-12-18T23:25:20;101857.72;;;15.83;41.88
26839;BME280;40088;51.214;6.786;2022-12-18T23:35:20;101840.38;;;15.82;41.79
26839;BME280;40088;51.214;6.786;2022-12-18T23:45:20;101820.25;;;15.82;42.17
26839;BME280;40088;51.214;6.786;2022-12-18T23:55:21;101799.13;;;15.82;42.26
